Time;durP1;ratioP1;P1;durP2;ratioP2;P2;SDS_P1;SDS_P2;PMS_P1;PMS_P2;Temp;Humidity;BMP_temperature;BMP_pressure;BME280_temperature;BME280_humidity;BME280_pressure;Samples;Min_cycle;Max_cycle;Signal;HPM_P1;HPM_P2
2022/11/15 00:01:14;;;;;;;33.33;26.55;;;;;;;7.67;98.14;100693.44;5042872;28;20047;-67
2022/11/15 00:03:40;;;;;;;31.33;26.27;;;;;;;7.72;98.01;100686.13;5051015;28;20033;-67
2022/11/15 00:06:08;;;;;;;33.70;25.85;;;;;;;7.79;97.96;100685.78;5050207;28;20029;-67
2022/11/15 00:08:36;;;;;;;38.53;27.58;;;;;;;7.79;98.24;100696.38;5035462;28;20045;-66
2022/11/15 00:11:04;;;;;;;33.30;25.60;;;;;;;7.84;98.30;100687.25;5030566;28;20495;-67
2022/11/15 00:13:32;;;;;;;38.08;26.40;;;;;;;7.82;98.49;100686.47;5035274;28;20037;-67
2022/11/15 00:16:01;;;;;;;33.97;26.67;;;;;;;7.94;98.42;100688.47;5052833;28;20052;-67
2022/11/15 00:18:29;;;;;;;33.58;25.42;;;;;;;7.99;98.38;100690.84;5053655;28;20419;-66
2022/11/15 00:20:56;;;;;;;32.88;25.42;;;;;;;8.05;98.26;100685.22;5056746;28;20475;-67
2022/11/15 00:23:24;;;;;;;32.88;24.73;;;;;;;8.09;98.07;100683.25;5075449;28;20034;-67
2022/11/15 00:25:57;;;;;;;34.30;26.58;;;;;;;8.11;98.73;100695.47;5052413;28;20468;-67
2022/11/15 00:28:23;;;;;;;32.75;25.98;;;;;;;8.14;98.61;100684.69;5035160;28;20033;-67
2022/11/15 00:30:48;;;;;;;33.78;24.98;;;;;;;8.17;98.46;100684.53;5049818;28;20496;-68
2022/11/15 00:33:13;;;;;;;31.98;25.38;;;;;;;8.20;98.49;100683.50;5048830;28;20030;-67
2022/11/15 00:35:39;;;;;;;34.50;24.95;;;;;;;8.22;98.27;100681.63;5039397;28;20489;-67
2022/11/15 00:38:07;;;;;;;33.15;25.60;;;;;;;8.28;98.38;100685.72;5043837;28;20108;-67
2022/11/15 00:40:32;;;;;;;34.83;24.95;;;;;;;8.32;98.48;100685.47;5052871;28;20064;-67
2022/11/15 00:43:00;;;;;;;31.15;24.92;;;;;;;8.32;98.35;100685.47;5043310;28;20085;-66
2022/11/15 00:45:25;;;;;;;33.30;24.85;;;;;;;8.39;98.70;100680.72;5034112;28;20037;-66
2022/11/15 00:47:51;;;;;;;30.38;23.58;;;;;;;8.42;98.88;100672.59;5035765;28;20086;-67
2022/11/15 00:50:17;;;;;;;33.47;24.77;;;;;;;8.45;99.06;100668.91;5053414;28;20025;-66
2022/11/15 00:52:43;;;;;;;33.08;25.00;;;;;;;8.48;99.25;100666.94;5054586;28;20600;-67
2022/11/15 00:55:17;;;;;;;30.30;24.25;;;;;;;8.47;99.63;100673.19;5053880;28;20037;-67
2022/11/15 00:57:42;;;;;;;31.15;23.83;;;;;;;8.54;99.05;100676.34;5052522;28;20040;-67
2022/11/15 01:00:09;;;;;;;31.95;24.23;;;;;;;8.56;99.17;100670.00;5053999;28;20097;-67
2022/11/15 01:02:34;;;;;;;26.20;23.08;;;;;;;8.57;99.54;100668.22;5045850;28;20017;-67
2022/11/15 01:05:00;;;;;;;29.75;23.10;;;;;;;8.57;99.96;100653.16;5033496;28;20476;-67
2022/11/15 01:07:25;;;;;;;32.70;24.88;;;;;;;8.63;100.00;100665.19;5044584;28;20554;-66
2022/11/15 01:09:50;;;;;;;31.75;23.92;;;;;;;8.67;100.00;100663.22;5034468;28;20144;-67
2022/11/15 01:12:16;;;;;;;32.20;23.52;;;;;;;8.67;100.00;100672.03;5034108;28;20190;-67
2022/11/15 01:14:41;;;;;;;32.75;24.75;;;;;;;8.70;100.00;100663.88;5044866;28;20480;-67
2022/11/15 01:17:07;;;;;;;32.15;23.88;;;;;;;8.72;100.00;100662.00;5054414;28;20040;-67
2022/11/15 01:19:34;;;;;;;32.22;24.70;;;;;;;8.72;100.00;100664.66;5053969;28;20468;-67
2022/11/15 01:22:00;;;;;;;29.80;23.90;;;;;;;8.71;100.00;100648.88;5047290;28;20037;-67
2022/11/15 01:24:25;;;;;;;31.63;22.92;;;;;;;8.74;100.00;100654.84;5032896;28;20456;-67
2022/11/15 01:26:51;;;;;;;28.88;23.38;;;;;;;8.74;100.00;100648.69;5033666;28;20171;-66
2022/11/15 01:29:16;;;;;;;29.17;23.38;;;;;;;8.76;100.00;100647.63;5032517;28;20124;-67
2022/11/15 01:31:41;;;;;;;35.90;23.83;;;;;;;8.77;100.00;100646.69;5032541;28;20057;-67
2022/11/15 01:34:07;;;;;;;25.95;22.17;;;;;;;8.80;100.00;100641.22;5034448;28;20480;-67
2022/11/15 01:36:32;;;;;;;25.50;22.02;;;;;;;8.81;100.00;100640.25;5036367;28;20037;-67
2022/11/15 01:39:01;;;;;;;29.05;24.05;;;;;;;8.85;100.00;100635.63;5056395;28;20499;-67
2022/11/15 01:41:31;;;;;;;31.67;24.33;;;;;;;8.88;100.00;100640.75;5034462;28;20108;-67
2022/11/15 01:44:30;;;;;;;32.25;23.67;;;;;;;8.91;100.00;100635.25;5049465;28;20056;-66
2022/11/15 01:46:58;;;;;;;31.07;23.97;;;;;;;8.90;100.00;100632.72;5053834;28;20017;-67
2022/11/15 01:49:26;;;;;;;32.90;24.42;;;;;;;8.96;100.00;100643.78;5042894;28;20124;-67
2022/11/15 01:51:53;;;;;;;30.92;24.73;;;;;;;9.01;100.00;100638.22;5052238;28;20025;-67
2022/11/15 01:54:21;;;;;;;29.80;23.90;;;;;;;9.04;100.00;100638.91;5037016;28;20120;-66
2022/11/15 01:56:53;;;;;;;32.00;24.33;;;;;;;9.08;100.00;100643.06;5047375;28;20033;-67
2022/11/15 01:59:19;;;;;;;32.50;24.42;;;;;;;9.11;100.00;100631.41;5039569;28;20037;-67
2022/11/15 02:01:45;;;;;;;33.22;24.33;;;;;;;9.04;100.00;100608.88;5053047;28;20384;-67
2022/11/15 02:04:20;;;;;;;32.78;25.08;;;;;;;9.17;100.00;100628.38;5043396;28;20040;-67
2022/11/15 02:06:48;;;;;;;35.05;23.88;;;;;;;9.26;100.00;100625.16;5032430;28;20492;-66
2022/11/15 02:09:14;;;;;;;33.08;23.92;;;;;;;9.27;100.00;100626.03;5033111;28;20036;-66
2022/11/15 02:11:40;;;;;;;30.88;24.73;;;;;;;9.31;100.00;100617.78;5034378;28;20044;-67
2022/11/15 02:14:07;;;;;;;33.28;24.77;;;;;;;9.36;100.00;100614.00;5044106;28;20028;-67
2022/11/15 02:16:42;;;;;;;34.83;24.35;;;;;;;9.36;100.00;100619.31;5051724;28;20033;-67
2022/11/15 02:19:23;;;;;;;34.40;25.85;;;;;;;9.40;100.00;100621.66;5053075;28;20024;-67
2022/11/15 02:22:05;;;;;;;33.45;25.70;;;;;;;9.42;100.00;100619.78;5051759;28;20056;-67
2022/11/15 02:24:42;;;;;;;32.40;25.05;;;;;;;9.43;100.00;100618.81;5033719;28;20033;-66
2022/11/15 02:27:29;;;;;;;35.30;25.20;;;;;;;9.46;100.00;100615.97;5064904;28;20048;-66
2022/11/15 02:30:13;;;;;;;35.00;26.27;;;;;;;9.52;100.00;100614.75;5033680;28;20488;-67
2022/11/15 02:32:47;;;;;;;34.35;26.92;;;;;;;9.54;100.00;100613.72;5047979;28;20082;-67
2022/11/15 02:35:13;;;;;;;38.70;27.27;;;;;;;9.60;100.00;100611.63;5050229;28;20033;-67
2022/11/15 02:38:02;;;;;;;35.38;27.77;;;;;;;9.61;100.00;100611.50;5051025;28;20082;-67
2022/11/15 02:40:40;;;;;;;33.33;25.45;;;;;;;9.64;100.00;100605.16;5042800;28;20036;-67
2022/11/15 02:46:14;;;;;;;;;;;;;;;9.67;100.00;100604.97;5045303;28;20113;-67
2022/11/15 02:48:42;;;;;;;37.72;27.38;;;;;;;9.69;100.00;100603.06;5048461;28;20397;-67
2022/11/15 02:51:09;;;;;;;37.67;28.83;;;;;;;9.70;100.00;100604.75;5034942;28;20036;-67
2022/11/15 02:53:34;;;;;;;38.05;27.33;;;;;;;9.74;100.00;100598.34;5047004;28;20029;-67
2022/11/15 02:56:00;;;;;;;34.35;26.77;;;;;;;9.74;100.00;100598.34;5051190;28;20036;-67
2022/11/15 02:58:47;;;;;;;38.90;28.55;;;;;;;9.79;100.00;100590.91;5029646;28;20033;-67
2022/11/15 03:01:21;;;;;;;34.78;27.02;;;;;;;9.77;100.00;100582.19;5039740;28;20070;-67
2022/11/15 03:03:52;;;;;;;37.25;26.98;;;;;;;9.77;100.00;100577.72;5050502;28;20029;-67
2022/11/15 03:06:25;;;;;;;38.83;26.30;;;;;;;9.77;100.00;100582.19;5048866;28;20071;-67
2022/11/15 03:09:04;;;;;;;37.17;27.15;;;;;;;9.75;100.00;100569.00;5048789;28;20060;-67
2022/11/15 03:11:32;;;;;;;37.95;27.45;;;;;;;9.81;100.00;100577.53;5039803;28;20028;-67
2022/11/15 03:14:07;;;;;;;35.73;26.70;;;;;;;9.81;100.00;100583.69;5035667;28;20247;-67
2022/11/15 03:16:57;;;;;;;33.17;26.40;;;;;;;9.82;100.00;100579.22;5031909;28;20559;-66
2022/11/15 03:19:30;;;;;;;;;;;;;;;9.84;100.00;100580.84;5036902;28;20029;-67
2022/11/15 03:22:00;;;;;;;35.30;26.08;;;;;;;9.85;100.00;100584.34;5037873;28;20011;-67
2022/11/15 03:24:30;;;;;;;37.67;26.80;;;;;;;9.84;100.00;100585.31;5045536;28;20032;-67
2022/11/15 03:26:59;;;;;;;34.15;25.65;;;;;;;9.84;100.00;100577.34;5051310;28;20037;-67
2022/11/15 03:29:31;;;;;;;35.73;26.73;;;;;;;9.87;100.00;100577.13;5043752;28;20391;-68
2022/11/15 03:32:28;;;;;;;32.70;26.45;;;;;;;9.89;100.00;100577.91;5049620;28;20774;-68
2022/11/15 03:35:02;;;;;;;30.15;25.88;;;;;;;9.92;100.00;100588.34;5040660;28;20205;-68
2022/11/15 03:37:51;;;;;;;35.75;27.17;;;;;;;9.91;100.00;100584.81;5048896;28;20025;-67
2022/11/15 03:40:24;;;;;;;36.58;27.83;;;;;;;9.95;100.00;100582.81;5031095;28;20038;-68
2022/11/15 03:43:10;;;;;;;41.83;28.73;;;;;;;9.96;100.00;100584.50;5038044;28;20099;-68
2022/11/15 03:45:41;;;;;;;33.63;26.02;;;;;;;9.96;100.00;100579.19;5037538;28;20037;-68
2022/11/15 03:48:27;;;;;;;38.13;28.33;;;;;;;9.97;100.00;100576.47;5047084;28;20468;-68
2022/11/15 03:50:53;;;;;;;39.70;27.65;;;;;;;9.96;100.00;100588.00;5032473;28;20103;-68
2022/11/15 03:53:19;;;;;;;40.20;27.42;;;;;;;9.98;100.00;100588.78;5038759;28;20029;-68
2022/11/15 03:55:44;;;;;;;40.03;29.33;;;;;;;9.98;100.00;100583.47;5039087;28;20115;-68
2022/11/15 03:58:10;;;;;;;39.42;29.55;;;;;;;10.00;100.00;100592.19;5050170;28;20419;-68
2022/11/15 04:00:35;;;;;;;38.08;28.38;;;;;;;9.98;100.00;100586.13;5050150;28;20029;-67
2022/11/15 04:03:02;;;;;;;40.90;30.48;;;;;;;10.02;100.00;100584.09;5051602;28;20029;-68
2022/11/15 04:05:30;;;;;;;39.28;29.27;;;;;;;9.99;100.00;100590.47;5049583;28;20032;-68
2022/11/15 04:07:55;;;;;;;42.53;29.83;;;;;;;10.02;100.00;100581.44;5050024;28;20037;-68
2022/11/15 04:10:20;;;;;;;44.65;29.83;;;;;;;10.04;100.00;100576.91;5049884;28;20037;-68
2022/11/15 04:12:47;;;;;;;42.42;30.95;;;;;;;10.04;100.00;100576.91;5049060;28;20044;-68
2022/11/15 04:15:18;;;;;;;44.13;30.67;;;;;;;10.02;100.00;100579.66;5048266;28;20029;-68
2022/11/15 04:17:51;;;;;;;42.08;31.25;;;;;;;10.06;100.00;100574.13;5048550;28;20033;-68
2022/11/15 04:26:10;;;;;;;45.00;30.90;;;;;;;10.09;100.00;100568.63;5047314;28;20098;-68
2022/11/15 04:29:33;;;;;;;44.22;30.83;;;;;;;10.10;100.00;100568.53;5051489;28;20053;-68
2022/11/15 04:31:21;;;;;;;43.60;30.58;;;;;;;10.09;100.00;100571.28;5031084;28;20037;-67
2022/11/15 04:33:46;;;;;;;40.15;29.27;;;;;;;10.08;100.00;100569.56;5041457;28;20420;-67
2022/11/15 04:38:55;;;;;;;42.30;29.17;;;;;;;10.07;100.00;100582.00;5050525;28;20542;-67
2022/11/15 04:41:21;;;;;;;44.08;29.55;;;;;;;10.10;100.00;100581.81;5049456;28;20025;-68
2022/11/15 04:43:46;;;;;;;42.85;30.67;;;;;;;10.10;100.00;100580.97;5044827;28;20526;-67
2022/11/15 04:46:12;;;;;;;41.38;29.42;;;;;;;10.09;100.00;100582.78;5048308;28;20079;-69
2022/11/15 04:48:38;;;;;;;40.05;29.75;;;;;;;10.07;100.00;100578.50;5033055;28;20088;-69
2022/11/15 04:51:04;;;;;;;44.70;29.33;;;;;;;10.09;100.00;100576.59;5031182;28;20038;-68
2022/11/15 04:53:29;;;;;;;41.20;28.67;;;;;;;10.06;100.00;100579.44;5038321;28;20021;-68
2022/11/15 04:55:57;;;;;;;41.55;29.90;;;;;;;10.09;100.00;100577.47;5047663;28;20083;-68
2022/11/15 04:58:23;;;;;;;37.42;27.75;;;;;;;10.08;100.00;100575.72;5035807;28;20067;-68
2022/11/15 05:00:48;;;;;;;41.55;29.13;;;;;;;10.09;100.00;100577.47;5045486;28;20053;-68
2022/11/15 05:06:00;;;;;;;37.00;28.67;;;;;;;10.09;100.00;100576.59;5061309;28;20404;-67
2022/11/15 05:08:26;;;;;;;42.42;28.40;;;;;;;10.10;100.00;100565.03;5043951;28;20431;-68
2022/11/15 05:10:51;;;;;;;39.70;28.60;;;;;;;10.09;100.00;100569.50;5039790;28;20040;-68
2022/11/15 05:13:19;;;;;;;38.13;26.95;;;;;;;10.10;100.00;100578.31;5047626;28;20029;-68
2022/11/15 05:15:45;;;;;;;42.13;28.63;;;;;;;10.11;100.00;100580.00;5053830;28;20020;-68
2022/11/15 05:18:14;;;;;;;39.80;27.30;;;;;;;10.12;100.00;100574.59;5053009;28;20029;-67
2022/11/15 05:20:39;;;;;;;39.10;28.90;;;;;;;10.14;100.00;100577.16;5044972;28;20026;-68
2022/11/15 05:23:05;;;;;;;40.75;28.83;;;;;;;10.13;100.00;100570.13;5035533;28;20099;-68
2022/11/15 05:25:31;;;;;;;39.10;27.60;;;;;;;10.10;100.00;100570.34;5033807;28;20037;-68
2022/11/15 05:27:59;;;;;;;36.47;26.70;;;;;;;10.14;100.00;100566.50;5034001;28;20494;-67
2022/11/15 05:30:24;;;;;;;38.90;28.42;;;;;;;10.14;100.00;100567.34;4999949;28;20095;-68
2022/11/15 05:32:50;;;;;;;39.55;26.88;;;;;;;10.12;100.00;100561.31;5042185;28;20049;-68
2022/11/15 05:35:25;;;;;;;39.92;27.75;;;;;;;10.16;100.00;100561.97;5052496;28;20108;-68
2022/11/15 05:37:51;;;;;;;36.50;27.30;;;;;;;10.16;100.00;100556.66;5057468;28;20107;-68
2022/11/15 05:40:16;;;;;;;35.85;27.75;;;;;;;10.15;100.00;100550.47;5073391;28;20120;-68
2022/11/15 05:42:44;;;;;;;32.90;26.73;;;;;;;10.12;100.00;100556.00;5065181;28;20014;-68
2022/11/15 05:45:10;;;;;;;31.77;25.98;;;;;;;10.13;100.00;100554.19;5033750;28;20393;-68
2022/11/15 05:47:39;;;;;;;31.80;26.02;;;;;;;10.13;100.00;100554.19;5034302;28;20057;-68
2022/11/15 05:50:05;;;;;;;34.92;26.83;;;;;;;10.13;100.00;100562.16;5033500;28;20365;-68
2022/11/15 05:52:37;;;;;;;34.72;26.85;;;;;;;10.15;100.00;100568.25;5035285;28;20033;-68
2022/11/15 05:55:04;;;;;;;38.47;27.10;;;;;;;10.14;100.00;100563.84;5043634;28;20025;-68
2022/11/15 05:57:30;;;;;;;40.05;28.55;;;;;;;10.17;100.00;100568.97;5052257;28;20087;-68
2022/11/15 05:59:55;;;;;;;38.65;27.80;;;;;;;10.17;100.00;100572.47;5035556;28;20125;-68
2022/11/15 06:02:21;;;;;;;40.47;29.05;;;;;;;10.18;100.00;100570.69;5051803;28;20033;-68
2022/11/15 06:04:46;;;;;;;39.63;27.80;;;;;;;10.19;100.00;100575.03;5051727;28;20136;-68
2022/11/15 06:07:12;;;;;;;37.22;27.88;;;;;;;10.22;100.00;100581.00;5036698;28;20091;-68
2022/11/15 06:09:37;;;;;;;42.55;28.98;;;;;;;10.20;100.00;100574.06;5030626;28;20519;-68
2022/11/15 06:12:03;;;;;;;35.00;26.48;;;;;;;10.20;100.00;100580.25;5025630;28;20061;-68
2022/11/15 06:14:28;;;;;;;34.38;26.42;;;;;;;10.21;100.00;100581.13;5049439;28;20075;-68
2022/11/15 06:16:53;;;;;;;39.38;28.38;;;;;;;10.21;100.00;100581.13;5040147;28;20029;-68
2022/11/15 06:19:19;;;;;;;37.78;27.13;;;;;;;10.21;100.00;100587.28;5035068;28;20494;-68
2022/11/15 06:21:44;;;;;;;37.08;26.77;;;;;;;10.25;100.00;100590.59;5051736;28;20078;-68
2022/11/15 06:24:09;;;;;;;42.00;28.80;;;;;;;10.22;100.00;100586.31;5040131;28;20033;-68
2022/11/15 06:26:35;;;;;;;37.97;29.27;;;;;;;10.27;100.00;100594.03;5048916;28;20446;-67
2022/11/15 06:29:02;;;;;;;39.53;29.05;;;;;;;10.28;100.00;100593.06;5050010;28;20033;-68
2022/11/15 06:31:28;;;;;;;37.67;29.60;;;;;;;10.28;100.00;100589.56;5052745;28;20398;-68
2022/11/15 06:33:55;;;;;;;38.72;29.25;;;;;;;10.22;100.00;100578.34;5040971;28;20124;-68
2022/11/15 06:36:21;;;;;;;35.58;26.88;;;;;;;10.26;100.00;100588.78;5035978;28;20037;-68
2022/11/15 06:38:46;;;;;;;36.53;26.48;;;;;;;10.24;100.00;100589.75;5042465;28;20085;-68
2022/11/15 06:41:16;;;;;;;31.88;24.33;;;;;;;10.22;100.00;100585.47;5047275;28;20047;-68
2022/11/15 06:43:44;;;;;;;33.00;23.75;;;;;;;10.23;100.00;100595.13;5051396;28;20072;-68
2022/11/15 06:46:10;;;;;;;32.60;22.55;;;;;;;10.21;100.00;100591.75;5051790;28;20033;-68
2022/11/15 06:48:38;;;;;;;28.63;22.92;;;;;;;10.21;100.00;100599.72;5052626;28;20111;-68
2022/11/15 06:51:07;;;;;;;33.08;24.20;;;;;;;10.21;100.00;100605.03;5050924;28;20461;-67
2022/11/15 06:53:36;;;;;;;28.80;22.55;;;;;;;10.21;100.00;100613.00;5051191;28;20029;-68
2022/11/15 06:56:04;;;;;;;32.42;21.88;;;;;;;10.23;100.00;100608.44;5050807;28;20033;-68
2022/11/15 06:58:30;;;;;;;31.83;20.33;;;;;;;10.21;100.00;100613.84;5052300;28;20024;-67
2022/11/15 07:01:05;;;;;;;30.60;21.50;;;;;;;10.19;100.00;100610.44;5049236;28;20468;-68
2022/11/15 07:03:34;;;;;;;25.63;20.23;;;;;;;10.21;100.00;100613.84;5036285;28;20021;-68
2022/11/15 07:06:01;;;;;;;29.35;21.13;;;;;;;10.18;100.00;100610.56;5032012;28;20029;-68
2022/11/15 07:08:28;;;;;;;29.00;21.00;;;;;;;10.21;100.00;100619.19;5030892;28;20025;-68
2022/11/15 07:11:00;;;;;;;29.98;21.20;;;;;;;10.20;100.00;100620.09;5032500;28;20072;-68
2022/11/15 07:13:26;;;;;;;28.63;21.02;;;;;;;10.20;100.00;100621.91;5031979;28;20534;-68
2022/11/15 07:15:52;;;;;;;27.88;20.83;;;;;;;10.20;100.00;100619.25;5031786;28;20025;-68
2022/11/15 07:18:17;;;;;;;31.65;21.65;;;;;;;10.17;100.00;100622.97;5034895;28;20025;-68
2022/11/15 07:20:46;;;;;;;25.45;20.83;;;;;;;10.21;100.00;100631.63;5032617;28;20068;-68
2022/11/15 07:23:11;;;;;;;27.23;21.20;;;;;;;10.21;100.00;100624.50;5032913;28;20040;-68
2022/11/15 07:25:37;;;;;;;25.35;20.25;;;;;;;10.21;100.00;100626.31;5031610;28;20025;-68
2022/11/15 07:28:03;;;;;;;25.98;21.45;;;;;;;10.22;100.00;100633.31;5032402;28;20069;-68
2022/11/15 07:30:29;;;;;;;30.80;21.20;;;;;;;10.18;100.00;100624.69;5033411;28;20033;-68
2022/11/15 07:32:59;;;;;;;28.27;20.98;;;;;;;10.22;100.00;100633.31;5048646;28;20110;-68
2022/11/15 07:35:26;;;;;;;30.05;20.77;;;;;;;10.23;100.00;100627.03;5051751;28;20028;-68
2022/11/15 07:38:00;;;;;;;27.73;20.48;;;;;;;10.24;100.00;100626.94;5047940;28;20476;-69
2022/11/15 07:40:28;;;;;;;25.48;20.13;;;;;;;10.23;100.00;100621.72;5039805;28;20033;-68
2022/11/15 07:42:59;;;;;;;25.45;19.13;;;;;;;10.23;100.00;100616.41;5031558;28;20021;-67
2022/11/15 07:45:27;;;;;;;26.80;21.10;;;;;;;10.22;100.00;100618.22;5031182;28;20041;-68
2022/11/15 07:47:53;;;;;;;27.60;19.92;;;;;;;10.24;100.00;100618.13;5031914;28;20025;-69
2022/11/15 07:50:22;;;;;;;31.10;21.33;;;;;;;10.21;100.00;100615.66;5037836;28;20102;-68
2022/11/15 07:52:47;;;;;;;29.17;20.35;;;;;;;10.15;100.00;100600.97;5050244;28;20027;-68
2022/11/15 07:55:13;;;;;;;27.63;20.38;;;;;;;10.20;100.00;100619.25;5051539;28;20032;-69
2022/11/15 07:57:38;;;;;;;26.85;20.40;;;;;;;10.19;100.00;100615.75;5034434;28;20180;-69
2022/11/15 08:00:06;;;;;;;25.63;19.83;;;;;;;10.18;100.00;100615.88;5040466;28;20096;-68
2022/11/15 08:02:31;;;;;;;25.45;19.17;;;;;;;10.20;100.00;100624.56;5043993;28;20036;-68
2022/11/15 08:04:57;;;;;;;26.73;20.02;;;;;;;10.22;100.00;100630.66;5032526;28;20033;-68
2022/11/15 08:07:22;;;;;;;26.02;20.10;;;;;;;10.24;100.00;100634.06;5032309;28;20128;-67
2022/11/15 08:09:50;;;;;;;22.65;18.45;;;;;;;10.26;100.00;100639.28;5048192;28;20440;-68
2022/11/15 08:12:15;;;;;;;23.45;18.17;;;;;;;10.24;100.00;100636.72;5050012;28;20029;-68
2022/11/15 08:14:40;;;;;;;21.73;17.15;;;;;;;10.24;100.00;100634.91;5050704;28;20036;-68
2022/11/15 08:17:06;;;;;;;21.95;16.67;;;;;;;10.21;100.00;100624.50;5042214;28;20029;-68
2022/11/15 08:19:31;;;;;;;23.52;17.73;;;;;;;10.17;100.00;100630.09;5049447;28;20086;-68
2022/11/15 08:21:57;;;;;;;22.48;15.77;;;;;;;10.17;100.00;100627.44;5051143;28;20041;-68
2022/11/15 08:24:23;;;;;;;21.83;15.27;;;;;;;10.17;100.00;100628.28;5051303;28;20076;-68
2022/11/15 08:26:48;;;;;;;21.33;15.45;;;;;;;10.17;100.00;100628.28;5047985;28;20492;-68
2022/11/15 08:29:14;;;;;;;17.67;14.30;;;;;;;10.17;100.00;100627.44;5050712;28;20538;-68
2022/11/15 08:31:39;;;;;;;17.23;13.38;;;;;;;10.20;100.00;100622.75;5032616;28;20036;-68
2022/11/15 08:34:06;;;;;;;22.67;14.10;;;;;;;10.16;100.00;100610.63;5050628;28;20035;-68
2022/11/15 08:36:32;;;;;;;17.48;13.48;;;;;;;10.19;100.00;100610.44;5036577;28;20530;-67
2022/11/15 08:38:57;;;;;;;16.40;12.27;;;;;;;10.22;100.00;100606.72;5034326;28;20033;-68
2022/11/15 08:41:36;;;;;;;17.15;12.60;;;;;;;10.23;100.00;100616.41;5035636;28;20029;-68
2022/11/15 08:44:04;;;;;;;14.35;10.90;;;;;;;10.24;100.00;100608.34;5034240;28;20108;-68
2022/11/15 08:46:30;;;;;;;13.90;11.38;;;;;;;10.29;100.00;100608.06;5033578;28;20049;-68
2022/11/15 08:49:00;;;;;;;14.20;10.70;;;;;;;10.35;100.00;100601.47;5034900;28;20025;-68
2022/11/15 08:51:27;;;;;;;15.75;11.00;;;;;;;10.36;100.00;100601.41;5024435;28;20112;-68
2022/11/15 08:53:53;;;;;;;11.75;10.43;;;;;;;10.40;100.00;100591.41;5053475;28;20032;-68
2022/11/15 08:56:18;;;;;;;13.27;10.50;;;;;;;10.46;100.00;100591.84;5054203;28;20079;-68
2022/11/15 08:58:44;;;;;;;11.90;9.48;;;;;;;10.49;99.72;100601.44;5054215;28;20033;-68
2022/11/15 09:01:18;;;;;;;11.15;9.10;;;;;;;10.52;100.00;100589.72;5034985;28;20044;-68
2022/11/15 09:03:44;;;;;;;11.60;8.63;;;;;;;10.57;99.48;100590.28;5054390;28;20025;-68
2022/11/15 09:06:09;;;;;;;10.35;8.93;;;;;;;10.61;99.24;100578.47;5054065;28;20053;-68
2022/11/15 09:08:36;;;;;;;12.52;8.45;;;;;;;10.61;98.15;100571.34;5054626;28;20029;-68
2022/11/15 09:11:06;;;;;;;9.50;8.43;;;;;;;10.63;98.24;100566.78;5046429;28;20499;-68
2022/11/15 09:13:36;;;;;;;8.65;7.85;;;;;;;10.74;97.45;100567.88;5034036;28;20535;-67
2022/11/15 09:16:02;;;;;;;10.00;6.45;;;;;;;10.80;96.95;100568.31;5032771;28;20079;-68
2022/11/15 09:18:28;;;;;;;9.38;6.47;;;;;;;10.83;95.29;100560.09;5034592;28;20265;-68
2022/11/15 09:20:58;;;;;;;6.30;5.68;;;;;;;10.91;94.76;100559.56;5035082;28;20030;-68
2022/11/15 09:23:25;;;;;;;7.30;5.07;;;;;;;10.92;93.32;100555.97;5033899;28;20044;-68
2022/11/15 09:25:51;;;;;;;7.25;5.50;;;;;;;10.95;92.29;100560.22;5016002;28;20034;-69
2022/11/15 09:28:16;;;;;;;8.15;5.43;;;;;;;10.98;92.13;100558.19;5032898;28;20033;-68
2022/11/15 09:30:42;;;;;;;5.30;4.55;;;;;;;11.01;90.98;100559.78;5033598;28;20090;-68
2022/11/15 09:33:12;;;;;;;7.60;4.60;;;;;;;10.98;90.72;100547.56;5036208;28;20029;-68
2022/11/15 09:35:37;;;;;;;7.20;4.43;;;;;;;11.04;90.34;100563.09;5032744;28;20675;-68
2022/11/15 09:38:03;;;;;;;6.22;4.43;;;;;;;11.06;89.56;100555.84;5032636;28;20132;-68
2022/11/15 09:40:32;;;;;;;7.53;4.13;;;;;;;11.05;88.88;100567.44;5033656;28;20021;-68
2022/11/15 09:43:23;;;;;;;5.35;4.40;;;;;;;11.08;88.43;100548.59;5034848;28;20025;-68
2022/11/15 09:46:17;;;;;;;5.55;3.80;;;;;;;11.17;87.08;100552.41;5032279;28;20416;-68
2022/11/15 09:48:47;;;;;;;4.00;3.47;;;;;;;11.23;86.89;100564.44;5033838;28;20108;-69
2022/11/15 09:51:25;;;;;;;3.78;3.20;;;;;;;11.30;85.01;100557.75;5044846;28;20029;-68
2022/11/15 09:54:19;;;;;;;4.40;3.28;;;;;;;11.40;84.08;100552.63;5053603;28;20036;-68
2022/11/15 09:56:45;;;;;;;4.72;3.50;;;;;;;11.47;81.26;100548.53;5052841;28;20691;-68
2022/11/15 09:59:19;;;;;;;4.22;2.90;;;;;;;11.57;80.72;100555.78;5053569;28;20029;-68
2022/11/15 10:01:50;;;;;;;6.68;3.05;;;;;;;11.65;79.48;100547.25;5040741;28;20033;-69
2022/11/15 10:04:18;;;;;;;3.13;2.63;;;;;;;11.90;78.41;100556.97;5033409;28;20108;-68
2022/11/15 10:06:53;;;;;;;3.47;2.50;;;;;;;12.16;77.00;100555.06;5033629;28;20033;-68
2022/11/15 10:09:29;;;;;;;5.35;2.50;;;;;;;12.50;75.09;100560.53;5033266;28;20026;-68
2022/11/15 10:11:54;;;;;;;4.95;2.80;;;;;;;12.66;74.15;100541.53;5033768;28;20025;-69
2022/11/15 10:14:23;;;;;;;3.78;2.45;;;;;;;12.88;73.48;100549.59;5031926;28;20029;-67
2022/11/15 10:16:57;;;;;;;4.13;2.67;;;;;;;13.19;72.86;100545.34;5033193;28;20033;-68
2022/11/15 10:20:00;;;;;;;3.22;2.50;;;;;;;13.52;71.92;100545.50;5033002;28;20496;-69
2022/11/15 10:22:38;;;;;;;8.75;2.05;;;;;;;13.48;70.50;100544.06;5048390;28;20044;-67
2022/11/15 10:25:13;;;;;;;3.13;2.15;;;;;;;13.12;69.64;100546.81;5032132;28;20041;-68
2022/11/15 10:27:41;;;;;;;4.63;2.15;;;;;;;12.91;68.66;100543.13;5033196;28;20033;-68
2022/11/15 10:30:17;;;;;;;4.45;2.50;;;;;;;12.74;69.73;100536.47;5031612;28;20029;-67
2022/11/15 10:32:44;;;;;;;6.72;2.60;;;;;;;12.74;68.98;100533.78;5034076;28;20029;-69
2022/11/15 10:35:20;;;;;;;5.35;2.50;;;;;;;12.77;68.87;100527.38;5032869;28;20030;-68
2022/11/15 10:37:47;;;;;;;6.68;2.17;;;;;;;12.60;67.58;100526.84;5032953;28;20401;-68
2022/11/15 10:40:23;;;;;;;4.10;2.03;;;;;;;12.73;68.76;100527.63;5033281;28;20025;-68
2022/11/15 10:43:05;;;;;;;5.60;2.25;;;;;;;12.82;67.65;100512.69;5039017;28;20021;-68
2022/11/15 10:45:32;;;;;;;3.83;2.10;;;;;;;13.02;65.54;100529.81;5050854;28;20041;-68
2022/11/15 10:48:12;;;;;;;7.97;2.63;;;;;;;13.43;66.17;100507.00;5052909;28;20056;-68
2022/11/15 10:50:43;;;;;;;2.58;2.10;;;;;;;13.68;63.81;100500.53;5051047;28;20063;-69
2022/11/15 10:53:23;;;;;;;4.43;2.05;;;;;;;13.98;63.75;100496.31;5052283;28;20087;-69
2022/11/15 10:55:55;;;;;;;8.18;2.00;;;;;;;14.15;62.87;100503.78;5049040;28;20108;-69
2022/11/15 10:58:34;;;;;;;6.43;2.13;;;;;;;14.50;62.05;100506.16;5052534;28;20048;-69
2022/11/15 11:01:16;;;;;;;3.85;1.55;;;;;;;14.74;61.34;100499.72;5038578;28;20035;-68
2022/11/15 11:03:59;;;;;;;3.92;1.83;;;;;;;14.70;59.71;100487.56;5032089;28;20505;-68
2022/11/15 11:06:24;;;;;;;5.82;2.00;;;;;;;14.80;59.44;100504.53;5032079;28;20025;-70
2022/11/15 11:08:59;;;;;;;6.70;1.98;;;;;;;14.74;59.34;100479.13;5032673;28;20036;-69
2022/11/15 11:11:43;;;;;;;4.72;2.15;;;;;;;15.05;58.50;100479.13;5031518;28;20080;-68
2022/11/15 11:14:18;;;;;;;5.22;1.73;;;;;;;15.10;58.13;100473.38;5030521;28;20033;-69
2022/11/15 11:17:02;;;;;;;5.88;1.90;;;;;;;15.20;58.23;100455.50;5032093;28;20029;-68
2022/11/15 11:19:28;;;;;;;5.53;2.10;;;;;;;15.11;58.18;100473.22;5029465;28;20025;-69
2022/11/15 11:22:30;;;;;;;5.88;2.00;;;;;;;14.95;59.87;100454.16;5037382;28;20364;-67
2022/11/15 11:25:05;;;;;;;3.13;1.95;;;;;;;14.69;59.90;100451.06;5050037;28;20117;-68
2022/11/15 11:28:13;;;;;;;5.82;1.90;;;;;;;14.84;60.94;100447.06;5050644;28;20511;-68
2022/11/15 11:30:57;;;;;;;4.95;2.13;;;;;;;14.85;58.87;100439.84;5049877;28;20021;-68
2022/11/15 11:34:00;;;;;;;7.43;2.30;;;;;;;15.30;57.73;100442.16;5051889;28;20480;-68
2022/11/15 11:36:43;;;;;;;5.35;2.05;;;;;;;15.26;57.12;100433.50;5051059;28;20041;-69
2022/11/15 11:39:19;;;;;;;5.57;2.20;;;;;;;15.53;56.97;100430.22;5050301;28;20078;-69